TimeCST,TemperatureF,Dew PointF,Humidity,Sea Level PressureIn,VisibilityMPH,Wind Direction,Wind SpeedMPH,Gust SpeedMPH,PrecipitationIn,Events,Conditions,WindDirDegrees,DateUTC
12:12 AM,6.8,3.2,85,29.63,1.0,Calm,Calm,-,N/A,Snow,Light Snow,0,2013-02-05 06:12:00
12:32 AM,6.8,3.2,85,29.63,0.8,SSE,3.5,-,0.02,Snow,Light Snow,160,2013-02-05 06:32:00
12:52 AM,6.8,3.2,85,29.62,0.8,Calm,Calm,-,0.02,Snow,Light Snow,0,2013-02-05 06:52:00
1:13 AM,6.8,3.2,85,29.62,1.0,Calm,Calm,-,N/A,Snow,Light Snow,0,2013-02-05 07:13:00
1:32 AM,6.8,3.2,85,29.62,1.0,Calm,Calm,-,0.01,Snow,Light Snow,0,2013-02-05 07:32:00
1:52 AM,6.8,1.4,79,29.62,0.8,Calm,Calm,-,0.02,Snow,Light Snow,0,2013-02-05 07:52:00
2:12 AM,5.0,1.4,85,29.62,0.5,Calm,Calm,-,N/A,Snow,Light Snow,0,2013-02-05 08:12:00
2:32 AM,5.0,1.4,85,29.62,1.2,Calm,Calm,-,0.01,Snow,Light Snow,0,2013-02-05 08:32:00
2:52 AM,5.0,1.4,85,29.62,1.5,Calm,Calm,-,0.01,Snow,Light Snow,0,2013-02-05 08:52:00
3:12 AM,5.0,1.4,85,29.62,0.8,Calm,Calm,-,N/A,Snow,Light Snow,0,2013-02-05 09:12:00
3:32 AM,5.0,1.4,85,29.62,0.5,Calm,Calm,-,0.01,Snow,Light Snow,0,2013-02-05 09:32:00
3:52 AM,3.2,-0.4,85,29.63,0.2,Calm,Calm,-,0.01,Snow,Snow,0,2013-02-05 09:52:00
4:12 AM,1.4,-2.2,85,29.64,0.5,Calm,Calm,-,N/A,Snow,Snow,0,2013-02-05 10:12:00
4:32 AM,-0.4,-5.8,78,29.64,0.5,Calm,Calm,-,N/A,Snow,Light Snow,0,2013-02-05 10:32:00
4:52 AM,-2.2,-5.8,85,29.65,1.0,Calm,Calm,-,N/A,Snow,Light Snow,0,2013-02-05 10:52:00
5:12 AM,-2.2,-5.8,85,29.66,2.0,Calm,Calm,-,N/A,Snow,Light Snow,0,2013-02-05 11:12:00
5:32 AM,-0.4,-5.8,78,29.67,2.0,Calm,Calm,-,N/A,Snow,Light Snow,0,2013-02-05 11:32:00
5:52 AM,-4.0,-7.6,85,29.68,2.5,Calm,Calm,-,N/A,Snow,Light Snow,0,2013-02-05 11:52:00
6:12 AM,-5.8,-9.4,84,29.69,5.0,Calm,Calm,-,N/A,Snow,Light Snow,0,2013-02-05 12:12:00
6:32 AM,-5.8,-9.4,84,29.71,2.0,Calm,Calm,-,N/A,Snow,Light Snow,0,2013-02-05 12:32:00
6:52 AM,-9.4,-13.0,84,29.72,4.0,Calm,Calm,-,N/A,Snow,Light Snow,0,2013-02-05 12:52:00
7:12 AM,-9.4,-14.8,77,29.73,0.8,Calm,Calm,-,N/A,Snow,Light Snow,0,2013-02-05 13:12:00
7:32 AM,-11.2,-16.6,77,29.75,1.2,Calm,Calm,-,N/A,Snow,Light Snow,0,2013-02-05 13:32:00
7:52 AM,-13.0,-16.6,84,29.76,7.0,Calm,Calm,-,N/A,,Scattered Clouds,0,2013-02-05 13:52:00
8:12 AM,-13.0,-16.6,84,29.78,3.0,Calm,Calm,-,N/A,Snow,Light Snow,0,2013-02-05 14:12:00
9:12 AM,-2.2,-7.6,78,29.81,10.0,NW,5.8,-,N/A,,Clear,320,2013-02-05 15:12:00
9:32 AM,1.4,-0.4,92,29.82,10.0,North,3.5,-,N/A,,Clear,350,2013-02-05 15:32:00
10:12 AM,6.8,1.4,79,29.85,10.0,NNW,3.5,-,N/A,,Clear,330,2013-02-05 16:12:00
10:32 AM,8.6,3.2,79,29.86,10.0,North,4.6,-,N/A,,Clear,350,2013-02-05 16:32:00
10:52 AM,10.4,3.2,73,29.87,10.0,NW,4.6,-,N/A,,Clear,310,2013-02-05 16:52:00
11:12 AM,12.2,3.2,67,29.88,10.0,North,3.5,-,N/A,,Clear,350,2013-02-05 17:12:00
11:32 AM,12.2,5.0,73,29.88,10.0,NW,4.6,-,N/A,,Clear,320,2013-02-05 17:32:00
11:52 AM,12.2,5.0,73,29.89,10.0,NW,5.8,-,N/A,,Clear,320,2013-02-05 17:52:00
12:12 PM,12.2,6.8,79,29.90,10.0,NNW,5.8,-,N/A,,Clear,330,2013-02-05 18:12:00
12:32 PM,14.0,5.0,67,29.90,10.0,NNW,6.9,-,N/A,,Scattered Clouds,330,2013-02-05 18:32:00
12:52 PM,12.2,3.2,67,29.91,10.0,NW,5.8,-,N/A,,Clear,320,2013-02-05 18:52:00
1:12 PM,12.2,3.2,67,29.91,10.0,NNW,6.9,-,N/A,,Scattered Clouds,340,2013-02-05 19:12:00
1:32 PM,14.0,3.2,62,29.91,10.0,NNW,4.6,-,N/A,,Clear,340,2013-02-05 19:32:00
1:52 PM,14.0,3.2,62,29.92,10.0,NNW,6.9,-,N/A,,Clear,330,2013-02-05 19:52:00
2:12 PM,14.0,3.2,62,29.92,10.0,NW,6.9,-,N/A,,Clear,320,2013-02-05 20:12:00
2:32 PM,12.2,1.4,62,29.92,10.0,NNW,5.8,-,N/A,,Clear,330,2013-02-05 20:32:00
2:52 PM,12.2,1.4,62,29.92,10.0,NNW,8.1,-,N/A,,Clear,330,2013-02-05 20:52:00
3:12 PM,12.2,1.4,62,29.94,10.0,NW,6.9,-,N/A,,Clear,320,2013-02-05 21:12:00
3:32 PM,12.2,1.4,62,29.96,10.0,NW,5.8,-,N/A,,Clear,320,2013-02-05 21:32:00
3:52 PM,12.2,-0.4,57,29.95,10.0,NW,5.8,-,N/A,,Clear,320,2013-02-05 21:52:00
4:12 PM,10.4,-0.4,62,29.96,10.0,NW,3.5,-,N/A,,Clear,320,2013-02-05 22:12:00
4:32 PM,8.6,-2.2,62,29.97,10.0,NW,3.5,-,N/A,,Clear,320,2013-02-05 22:32:00
4:52 PM,6.8,-5.8,56,29.97,10.0,NNW,3.5,-,N/A,,Clear,330,2013-02-05 22:52:00
5:12 PM,3.2,-7.6,61,29.98,10.0,Calm,Calm,-,N/A,,Clear,0,2013-02-05 23:12:00
5:52 PM,-5.8,-14.8,65,29.99,10.0,Calm,Calm,-,N/A,,Clear,0,2013-02-05 23:52:00
6:12 PM,-7.6,-16.6,65,29.99,10.0,Calm,Calm,-,N/A,,Clear,0,2013-02-06 00:12:00
6:32 PM,-7.6,-16.6,65,29.99,10.0,Calm,Calm,-,N/A,,Clear,0,2013-02-06 00:32:00
6:52 PM,-9.4,-18.4,65,29.99,10.0,Calm,Calm,-,N/A,,Clear,0,2013-02-06 00:52:00
7:12 PM,-11.2,-18.4,70,30.00,10.0,Calm,Calm,-,N/A,,Clear,0,2013-02-06 01:12:00
7:52 PM,-11.2,-18.4,70,30.00,10.0,Calm,Calm,-,N/A,,Overcast,0,2013-02-06 01:52:00
8:12 PM,-11.2,-18.4,70,30.01,10.0,Calm,Calm,-,N/A,,Overcast,0,2013-02-06 02:12:00
8:32 PM,-11.2,-16.6,77,30.01,10.0,Calm,Calm,-,N/A,,Overcast,0,2013-02-06 02:32:00
9:13 PM,-11.2,-16.6,77,30.02,10.0,Calm,Calm,-,N/A,,Mostly Cloudy,0,2013-02-06 03:13:00
9:32 PM,-13.0,-18.4,77,30.03,10.0,Calm,Calm,-,N/A,,Clear,0,2013-02-06 03:32:00
9:52 PM,-14.8,-20.2,77,30.03,10.0,Calm,Calm,-,N/A,,Clear,0,2013-02-06 03:52:00
10:12 PM,-14.8,-22.0,70,30.03,10.0,Calm,Calm,-,N/A,,Clear,0,2013-02-06 04:12:00
10:32 PM,-16.6,-23.8,70,30.03,10.0,Calm,Calm,-,N/A,,Clear,0,2013-02-06 04:32:00
10:52 PM,-18.4,-23.8,76,30.04,10.0,Calm,Calm,-,N/A,,Clear,0,2013-02-06 04:52:00
11:12 PM,-16.6,-23.8,70,30.04,10.0,Calm,Calm,-,N/A,,Scattered Clouds,0,2013-02-06 05:12:00
11:32 PM,-14.8,-18.4,84,30.04,10.0,Calm,Calm,-,N/A,,Overcast,0,2013-02-06 05:32:00
11:52 PM,-11.2,-16.6,77,30.03,10.0,Calm,Calm,-,N/A,,Overcast,0,2013-02-06 05:52:00